Time;durP1;ratioP1;P1;durP2;ratioP2;P2;SDS_P1;SDS_P2;PMS_P1;PMS_P2;Temp;Humidity;BMP_temperature;BMP_pressure;BME280_temperature;BME280_humidity;BME280_pressure;Samples;Min_cycle;Max_cycle;Signal;HPM_P1;HPM_P2
2021/07/13 00:00:18;;;;;;;19.33;11.90;;;;;;;;;;6248004;23;20008;-74
2021/07/13 00:02:45;;;;;;;17.52;11.02;;;;;;;;;;6220906;23;20422;-74
2021/07/13 00:05:16;;;;;;;19.05;11.20;;;;;;;;;;6247695;23;20005;-74
2021/07/13 00:07:43;;;;;;;19.80;10.38;;;;;;;;;;6220605;23;20008;-75
2021/07/13 00:10:10;;;;;;;21.00;10.27;;;;;;;;;;6247507;23;20008;-75
2021/07/13 00:12:36;;;;;;;16.80;10.75;;;;;;;;;;6220768;23;20030;-74
2021/07/13 00:15:05;;;;;;;18.88;11.35;;;;;;;;;;6247580;23;20325;-74
2021/07/13 00:17:31;;;;;;;20.55;11.82;;;;;;;;;;6220921;23;20005;-74
2021/07/13 00:19:57;;;;;;;22.05;12.50;;;;;;;;;;6220519;23;20396;-74
2021/07/13 00:22:23;;;;;;;19.90;12.13;;;;;;;;;;6247634;23;20004;-75
2021/07/13 00:24:49;;;;;;;18.77;11.65;;;;;;;;;;6247850;23;20008;-75
2021/07/13 00:27:16;;;;;;;19.65;10.93;;;;;;;;;;6247487;23;20034;-74
2021/07/13 00:29:42;;;;;;;17.77;11.55;;;;;;;;;;6247469;23;20441;-74
2021/07/13 00:32:08;;;;;;;19.27;11.02;;;;;;;;;;6247635;23;20025;-74
2021/07/13 00:34:35;;;;;;;17.55;9.90;;;;;;;;;;6247236;23;20048;-74
2021/07/13 00:37:01;;;;;;;19.15;10.70;;;;;;;;;;6247849;23;20373;-74
2021/07/13 00:39:28;;;;;;;16.48;10.75;;;;;;;;;;6247380;23;20008;-74
2021/07/13 00:41:54;;;;;;;19.95;11.50;;;;;;;;;;6247597;23;20000;-74
2021/07/13 00:44:20;;;;;;;21.35;11.93;;;;;;;;;;6247004;23;20035;-74
2021/07/13 00:46:48;;;;;;;16.27;10.98;;;;;;;;;;6247444;23;20000;-75
2021/07/13 00:49:15;;;;;;;18.30;10.95;;;;;;;;;;6247027;23;20016;-75
2021/07/13 00:51:42;;;;;;;21.45;12.98;;;;;;;;;;6220529;23;20000;-74
2021/07/13 00:54:09;;;;;;;20.05;11.75;;;;;;;;;;6247675;23;20083;-73
2021/07/13 00:56:37;;;;;;;18.95;12.68;;;;;;;;;;6220221;23;20031;-74
2021/07/13 00:59:03;;;;;;;18.77;11.60;;;;;;;;;;6247109;23;20460;-72
2021/07/13 01:01:30;;;;;;;15.38;10.32;;;;;;;;;;6220366;23;20011;-74
2021/07/13 01:03:57;;;;;;;19.25;12.05;;;;;;;;;;6247261;23;20004;-74
2021/07/13 01:06:25;;;;;;;20.38;12.35;;;;;;;;;;6247198;23;20413;-74
2021/07/13 01:08:57;;;;;;;17.73;10.43;;;;;;;;;;6247071;23;20090;-74
2021/07/13 01:11:30;;;;;;;21.42;12.50;;;;;;;;;;6246937;23;20000;-74
2021/07/13 01:13:56;;;;;;;;;;;;;;;;;;6220782;23;20005;-72
2021/07/13 01:16:28;;;;;;;16.17;10.32;;;;;;;;;;6220311;23;19931;-75
2021/07/13 01:19:17;;;;;;;18.25;11.00;;;;;;;;;;6220072;23;20083;-75
2021/07/13 01:21:43;;;;;;;19.27;11.23;;;;;;;;;;6151842;23;20004;-74
2021/07/13 01:24:29;;;;;;;15.45;10.35;;;;;;;;;;6220200;23;20137;-74
2021/07/13 01:27:09;;;;;;;18.20;10.18;;;;;;;;;;6220194;23;19996;-74
2021/07/13 01:29:36;;;;;;;17.77;10.90;;;;;;;;;;6220132;23;20051;-75
2021/07/13 01:32:03;;;;;;;20.35;11.68;;;;;;;;;;6246679;23;20004;-74
2021/07/13 01:34:34;;;;;;;21.23;13.15;;;;;;;;;;6246796;23;20345;-74
2021/07/13 01:37:02;;;;;;;16.85;10.68;;;;;;;;;;6220119;23;20012;-74
2021/07/13 01:39:29;;;;;;;16.45;11.07;;;;;;;;;;6219786;23;20015;-74
2021/07/13 01:41:57;;;;;;;18.40;11.40;;;;;;;;;;6246532;23;20008;-74
2021/07/13 01:44:25;;;;;;;17.98;11.02;;;;;;;;;;6220062;23;20032;-74
2021/07/13 01:46:52;;;;;;;15.85;10.43;;;;;;;;;;6246850;23;20000;-74
2021/07/13 01:49:20;;;;;;;16.33;10.25;;;;;;;;;;6247132;23;20368;-75
2021/07/13 01:51:47;;;;;;;16.50;10.23;;;;;;;;;;6246619;23;19996;-75
2021/07/13 01:54:14;;;;;;;17.75;11.38;;;;;;;;;;6246864;23;20015;-74
2021/07/13 01:56:41;;;;;;;17.35;10.50;;;;;;;;;;6219710;23;20007;-74
2021/07/13 01:59:08;;;;;;;17.25;11.10;;;;;;;;;;6246954;23;20066;-74
2021/07/13 02:01:35;;;;;;;25.33;11.38;;;;;;;;;;6247147;23;20095;-74
2021/07/13 02:04:03;;;;;;;17.35;10.13;;;;;;;;;;6246510;23;20008;-74
2021/07/13 02:06:30;;;;;;;19.33;10.82;;;;;;;;;;6219692;23;20004;-74
2021/07/13 02:08:58;;;;;;;18.85;11.50;;;;;;;;;;6219686;23;20004;-74
2021/07/13 02:11:25;;;;;;;20.02;12.23;;;;;;;;;;6246458;23;20428;-75
2021/07/13 02:13:51;;;;;;;19.67;11.68;;;;;;;;;;6219715;23;20000;-75
2021/07/13 02:16:19;;;;;;;17.35;10.23;;;;;;;;;;6246995;23;20075;-74
2021/07/13 02:18:47;;;;;;;18.42;10.38;;;;;;;;;;6246527;23;20047;-75
2021/07/13 02:21:14;;;;;;;15.20;9.73;;;;;;;;;;6219643;23;20008;-74
2021/07/13 02:23:41;;;;;;;18.95;9.52;;;;;;;;;;6219626;23;20008;-74
2021/07/13 02:26:09;;;;;;;16.65;9.77;;;;;;;;;;6246207;23;20093;-74
2021/07/13 02:28:40;;;;;;;15.65;10.23;;;;;;;;;;6219742;23;20019;-74
2021/07/13 02:31:26;;;;;;;17.65;11.07;;;;;;;;;;6219530;23;20043;-74
2021/07/13 02:33:56;;;;;;;17.98;10.88;;;;;;;;;;6220084;23;20067;-75
2021/07/13 02:36:25;;;;;;;17.90;10.60;;;;;;;;;;6244617;23;20016;-74
2021/07/13 02:38:52;;;;;;;23.98;11.57;;;;;;;;;;6244831;23;20004;-73
2021/07/13 02:41:19;;;;;;;18.10;11.73;;;;;;;;;;6244856;23;20035;-75
2021/07/13 02:43:45;;;;;;;19.20;12.27;;;;;;;;;;6246245;23;20009;-73
2021/07/13 02:46:12;;;;;;;20.98;11.27;;;;;;;;;;6244682;23;20008;-75
2021/07/13 02:48:39;;;;;;;19.88;11.65;;;;;;;;;;6245671;23;20083;-75
2021/07/13 02:51:06;;;;;;;22.25;12.20;;;;;;;;;;6246693;23;20012;-74
2021/07/13 02:53:33;;;;;;;22.67;11.98;;;;;;;;;;6244758;23;20010;-75
2021/07/13 02:56:00;;;;;;;20.27;12.27;;;;;;;;;;6246234;23;20032;-75
2021/07/13 02:58:27;;;;;;;18.15;10.77;;;;;;;;;;6246437;23;20065;-75
2021/07/13 03:00:54;;;;;;;16.75;10.60;;;;;;;;;;6246238;23;20000;-75
2021/07/13 03:03:22;;;;;;;20.73;11.65;;;;;;;;;;6246214;23;20421;-74
2021/07/13 03:05:52;;;;;;;18.27;11.15;;;;;;;;;;6244269;23;20058;-75
2021/07/13 03:08:26;;;;;;;18.05;11.25;;;;;;;;;;6244542;23;20496;-75
2021/07/13 03:10:54;;;;;;;19.38;11.80;;;;;;;;;;6244757;23;20083;-73
2021/07/13 03:13:22;;;;;;;23.45;11.68;;;;;;;;;;6244597;23;20004;-75
2021/07/13 03:15:49;;;;;;;17.02;11.25;;;;;;;;;;6246578;23;20330;-74
2021/07/13 03:18:15;;;;;;;21.67;11.80;;;;;;;;;;6244288;23;20008;-75
2021/07/13 03:20:43;;;;;;;19.85;11.82;;;;;;;;;;6245961;23;20058;-75
2021/07/13 03:23:10;;;;;;;16.52;10.57;;;;;;;;;;6244576;23;20047;-74
2021/07/13 03:25:39;;;;;;;16.38;10.75;;;;;;;;;;6244057;23;20005;-75
2021/07/13 03:28:06;;;;;;;16.48;10.75;;;;;;;;;;6244460;23;20012;-75
2021/07/13 03:30:33;;;;;;;17.88;11.23;;;;;;;;;;6244374;23;20388;-75
2021/07/13 03:33:00;;;;;;;15.50;10.13;;;;;;;;;;6244340;23;20004;-75
2021/07/13 03:35:27;;;;;;;19.58;10.60;;;;;;;;;;6244092;23;20027;-75
2021/07/13 03:37:54;;;;;;;16.63;10.35;;;;;;;;;;6246056;23;20072;-75
2021/07/13 03:40:22;;;;;;;20.10;11.15;;;;;;;;;;6246244;23;20058;-75
2021/07/13 03:42:49;;;;;;;17.00;10.20;;;;;;;;;;6244061;23;20000;-74
2021/07/13 03:45:18;;;;;;;18.15;10.77;;;;;;;;;;6243956;23;20036;-73
2021/07/13 03:47:52;;;;;;;18.23;10.25;;;;;;;;;;6246017;23;20003;-74
2021/07/13 03:50:19;;;;;;;16.50;10.75;;;;;;;;;;6244157;23;20074;-73
2021/07/13 03:52:45;;;;;;;24.67;10.38;;;;;;;;;;6244149;23;20087;-75
2021/07/13 03:55:12;;;;;;;16.77;10.63;;;;;;;;;;6245838;23;20063;-74
2021/07/13 03:57:39;;;;;;;22.13;10.10;;;;;;;;;;6244252;23;20009;-76
2021/07/13 04:00:08;;;;;;;21.05;10.18;;;;;;;;;;6244161;23;20079;-75
2021/07/13 04:02:34;;;;;;;19.40;10.35;;;;;;;;;;6245000;23;20008;-74
2021/07/13 04:05:00;;;;;;;17.08;9.98;;;;;;;;;;6243851;23;20007;-75
2021/07/13 04:07:26;;;;;;;17.88;10.82;;;;;;;;;;6244998;23;20008;-75
2021/07/13 04:09:52;;;;;;;18.60;9.65;;;;;;;;;;6245748;23;20012;-75
2021/07/13 04:12:18;;;;;;;14.88;10.13;;;;;;;;;;6244124;23;20440;-76
2021/07/13 04:14:44;;;;;;;16.13;9.30;;;;;;;;;;6245756;23;20008;-74
2021/07/13 04:17:10;;;;;;;13.43;8.77;;;;;;;;;;6243952;23;20000;-74
2021/07/13 04:19:36;;;;;;;19.42;9.10;;;;;;;;;;6246012;23;20004;-75
2021/07/13 04:22:03;;;;;;;17.77;8.90;;;;;;;;;;6246040;23;20474;-75
2021/07/13 04:24:29;;;;;;;17.20;9.10;;;;;;;;;;6247227;23;20040;-72
2021/07/13 04:26:55;;;;;;;18.92;8.57;;;;;;;;;;6247847;23;20085;-73
2021/07/13 04:29:21;;;;;;;14.35;8.73;;;;;;;;;;6245941;23;20374;-77
2021/07/13 04:31:47;;;;;;;16.67;8.05;;;;;;;;;;6247412;23;20010;-75
2021/07/13 04:34:14;;;;;;;13.48;8.15;;;;;;;;;;6245534;23;20445;-75
2021/07/13 04:36:41;;;;;;;13.70;7.70;;;;;;;;;;6247522;23;20000;-75
2021/07/13 04:39:08;;;;;;;13.63;7.78;;;;;;;;;;6247616;23;20004;-76
2021/07/13 04:41:34;;;;;;;11.07;7.53;;;;;;;;;;6246425;23;20008;-75
2021/07/13 04:44:00;;;;;;;11.90;7.22;;;;;;;;;;6244641;23;20000;-75
2021/07/13 04:46:27;;;;;;;11.07;7.40;;;;;;;;;;6246733;23;20004;-75
2021/07/13 04:48:54;;;;;;;11.93;7.40;;;;;;;;;;6245432;23;20059;-74
2021/07/13 04:51:20;;;;;;;9.18;6.72;;;;;;;;;;6245181;23;20000;-74
2021/07/13 04:53:46;;;;;;;12.18;6.93;;;;;;;;;;6245691;23;20008;-75
2021/07/13 04:56:12;;;;;;;15.43;7.10;;;;;;;;;;6245951;23;20007;-75
2021/07/13 04:58:39;;;;;;;10.20;6.88;;;;;;;;;;6245718;23;20035;-75
2021/07/13 05:01:05;;;;;;;11.05;6.90;;;;;;;;;;6245887;23;20008;-74
2021/07/13 05:03:31;;;;;;;10.75;7.10;;;;;;;;;;6247396;23;20005;-75
2021/07/13 05:05:58;;;;;;;13.93;7.97;;;;;;;;;;6245772;23;20414;-75
2021/07/13 05:08:24;;;;;;;11.80;7.22;;;;;;;;;;6247181;23;20422;-75
2021/07/13 05:10:50;;;;;;;13.45;7.03;;;;;;;;;;6245517;23;20035;-76
2021/07/13 05:13:17;;;;;;;10.32;6.93;;;;;;;;;;6247301;23;20008;-75
2021/07/13 05:15:43;;;;;;;10.90;7.05;;;;;;;;;;6247313;23;20012;-76
2021/07/13 05:18:10;;;;;;;9.07;6.47;;;;;;;;;;6247165;23;20019;-76
2021/07/13 05:20:37;;;;;;;11.38;6.95;;;;;;;;;;6245433;23;20436;-76
2021/07/13 05:23:07;;;;;;;16.83;7.40;;;;;;;;;;6245566;23;20376;-75
2021/07/13 05:25:33;;;;;;;13.25;6.93;;;;;;;;;;6245457;23;20489;-74
2021/07/13 05:28:00;;;;;;;12.82;6.72;;;;;;;;;;6247124;23;20071;-77
2021/07/13 05:30:27;;;;;;;11.88;6.70;;;;;;;;;;6244906;23;20063;-75
2021/07/13 05:32:54;;;;;;;10.85;6.63;;;;;;;;;;6245614;23;20027;-78
2021/07/13 05:35:21;;;;;;;11.57;6.68;;;;;;;;;;6246485;23;20019;-75
2021/07/13 05:37:47;;;;;;;9.18;6.55;;;;;;;;;;6220231;23;20326;-70
2021/07/13 05:40:14;;;;;;;10.57;6.47;;;;;;;;;;6220239;23;20083;-70
2021/07/13 05:42:41;;;;;;;11.75;7.15;;;;;;;;;;6246896;23;20058;-73
2021/07/13 05:45:07;;;;;;;10.15;6.57;;;;;;;;;;6246997;23;20012;-73
2021/07/13 05:47:34;;;;;;;11.35;6.68;;;;;;;;;;6246660;23;20003;-73
2021/07/13 05:50:00;;;;;;;15.85;7.15;;;;;;;;;;6246063;23;20008;-76
2021/07/13 05:52:26;;;;;;;9.00;6.82;;;;;;;;;;6246782;23;20043;-73
2021/07/13 05:54:52;;;;;;;13.25;6.85;;;;;;;;;;6219734;23;20340;-73
2021/07/13 05:57:18;;;;;;;11.15;7.05;;;;;;;;;;6246719;23;20000;-72
2021/07/13 05:59:45;;;;;;;13.73;7.05;;;;;;;;;;6219521;23;20087;-72
2021/07/13 06:02:11;;;;;;;9.27;7.40;;;;;;;;;;6219365;23;20368;-73
2021/07/13 06:04:37;;;;;;;11.75;7.82;;;;;;;;;;6246308;23;20031;-77
2021/07/13 06:07:03;;;;;;;9.25;6.68;;;;;;;;;;6219213;23;20464;-74
2021/07/13 06:09:30;;;;;;;10.45;6.82;;;;;;;;;;6219581;23;20019;-74
2021/07/13 06:11:57;;;;;;;11.50;7.68;;;;;;;;;;6246086;23;20079;-72
2021/07/13 06:14:23;;;;;;;9.70;6.70;;;;;;;;;;6246515;23;20011;-75
2021/07/13 06:16:49;;;;;;;9.27;6.07;;;;;;;;;;6219497;23;20058;-73
2021/07/13 06:19:16;;;;;;;13.98;7.15;;;;;;;;;;6246234;23;20023;-74
2021/07/13 06:21:42;;;;;;;14.27;7.10;;;;;;;;;;6246349;23;19996;-73
2021/07/13 06:24:08;;;;;;;10.35;6.05;;;;;;;;;;6219440;23;20409;-73
2021/07/13 06:26:34;;;;;;;11.88;6.85;;;;;;;;;;6246050;23;20442;-72
2021/07/13 06:29:00;;;;;;;7.40;6.13;;;;;;;;;;6246246;23;20004;-73
2021/07/13 06:31:27;;;;;;;9.55;7.00;;;;;;;;;;6246208;23;20030;-74
2021/07/13 06:33:53;;;;;;;13.02;6.35;;;;;;;;;;6219498;23;20417;-73
2021/07/13 06:36:19;;;;;;;17.95;6.28;;;;;;;;;;6245915;23;20341;-74
2021/07/13 06:38:47;;;;;;;19.88;6.60;;;;;;;;;;6246108;23;20396;-75
2021/07/13 06:41:13;;;;;;;9.23;5.88;;;;;;;;;;6246593;23;20035;-74
2021/07/13 06:43:40;;;;;;;10.48;5.97;;;;;;;;;;6246508;23;20016;-74
2021/07/13 06:46:06;;;;;;;9.75;5.68;;;;;;;;;;6246497;23;20074;-74
2021/07/13 06:48:32;;;;;;;7.07;5.22;;;;;;;;;;6246622;23;20015;-74
2021/07/13 06:50:59;;;;;;;18.52;5.93;;;;;;;;;;6246675;23;20008;-74
2021/07/13 06:53:25;;;;;;;9.20;5.40;;;;;;;;;;6244843;23;20012;-74
2021/07/13 06:55:52;;;;;;;10.95;5.60;;;;;;;;;;6247129;23;20011;-89
2021/07/13 06:58:18;;;;;;;9.00;5.93;;;;;;;;;;6247554;23;20000;-84
2021/07/13 07:00:44;;;;;;;7.25;5.82;;;;;;;;;;6248400;23;20004;-69
2021/07/13 07:03:10;;;;;;;7.82;5.32;;;;;;;;;;6245792;23;20008;-85
2021/07/13 07:05:37;;;;;;;7.82;5.07;;;;;;;;;;6245712;23;20004;-87
2021/07/13 07:08:03;;;;;;;9.50;5.60;;;;;;;;;;6248371;23;20004;-87
2021/07/13 07:10:29;;;;;;;6.35;4.95;;;;;;;;;;6248078;23;20382;-89
2021/07/13 07:12:56;;;;;;;7.40;5.50;;;;;;;;;;6246387;23;20004;-89
2021/07/13 07:15:22;;;;;;;7.20;4.93;;;;;;;;;;6246768;23;20318;-87
2021/07/13 07:17:49;;;;;;;10.90;5.22;;;;;;;;;;6248122;23;20027;-87
2021/07/13 07:20:17;;;;;;;7.25;5.28;;;;;;;;;;6246824;23;20008;-87
2021/07/13 07:22:43;;;;;;;14.57;5.70;;;;;;;;;;6248227;23;20314;-89
2021/07/13 07:25:10;;;;;;;7.82;5.70;;;;;;;;;;6247668;23;20460;-85
2021/07/13 07:27:36;;;;;;;8.77;5.65;;;;;;;;;;6247773;23;20004;-87
2021/07/13 07:30:05;;;;;;;11.18;5.53;;;;;;;;;;6247883;23;20031;-89
2021/07/13 07:32:32;;;;;;;8.70;5.15;;;;;;;;;;6247097;23;20000;-72
2021/07/13 07:34:59;;;;;;;7.07;5.43;;;;;;;;;;6243964;23;20348;-72
2021/07/13 07:37:25;;;;;;;5.75;5.10;;;;;;;;;;6246417;23;20012;-74
2021/07/13 07:39:52;;;;;;;11.57;5.05;;;;;;;;;;6246135;23;20011;-73
2021/07/13 07:42:18;;;;;;;7.82;4.55;;;;;;;;;;6246164;23;20000;-74
2021/07/13 07:44:44;;;;;;;14.60;4.57;;;;;;;;;;6246463;23;20004;-73
2021/07/13 07:47:10;;;;;;;5.70;4.20;;;;;;;;;;6244447;23;20011;-74
2021/07/13 07:49:37;;;;;;;5.47;4.38;;;;;;;;;;6245885;23;20012;-74
2021/07/13 07:52:03;;;;;;;6.95;4.50;;;;;;;;;;6246044;23;20005;-73
2021/07/13 07:54:30;;;;;;;5.78;4.03;;;;;;;;;;6248024;23;20007;-74
2021/07/13 07:56:57;;;;;;;5.10;4.05;;;;;;;;;;6246606;23;20004;-75
2021/07/13 07:59:23;;;;;;;6.10;4.30;;;;;;;;;;6246567;23;20337;-76
2021/07/13 08:01:49;;;;;;;6.47;4.35;;;;;;;;;;6248202;23;20007;-76
2021/07/13 08:04:16;;;;;;;7.57;3.95;;;;;;;;;;6248105;23;20015;-76
2021/07/13 08:06:42;;;;;;;7.32;3.90;;;;;;;;;;6247779;23;20007;-72
2021/07/13 08:09:08;;;;;;;10.77;4.78;;;;;;;;;;6248041;23;20711;-73
2021/07/13 08:11:35;;;;;;;6.60;4.00;;;;;;;;;;6246397;23;20005;-73
2021/07/13 08:14:04;;;;;;;6.20;4.20;;;;;;;;;;6247807;23;20000;-73
2021/07/13 08:16:31;;;;;;;6.47;4.00;;;;;;;;;;6246368;23;20000;-73
2021/07/13 08:18:57;;;;;;;9.20;3.70;;;;;;;;;;6246344;23;20324;-73
2021/07/13 08:21:23;;;;;;;5.72;4.20;;;;;;;;;;6247181;23;20007;-74
2021/07/13 08:23:49;;;;;;;4.72;3.58;;;;;;;;;;6246260;23;20440;-76
2021/07/13 08:26:15;;;;;;;9.35;4.32;;;;;;;;;;6247877;23;20008;-74
2021/07/13 08:28:42;;;;;;;7.60;3.33;;;;;;;;;;6246271;23;20004;-75
2021/07/13 08:31:08;;;;;;;4.55;3.20;;;;;;;;;;6247831;23;20421;-74
2021/07/13 08:33:34;;;;;;;5.60;3.70;;;;;;;;;;6245662;23;20011;-74
2021/07/13 08:36:00;;;;;;;6.00;3.28;;;;;;;;;;6248042;23;20016;-72
2021/07/13 08:38:26;;;;;;;4.10;3.25;;;;;;;;;;6220793;23;20139;-74
2021/07/13 08:40:53;;;;;;;6.10;3.25;;;;;;;;;;6220588;23;20130;-74
2021/07/13 08:43:22;;;;;;;4.50;3.05;;;;;;;;;;6247565;23;20418;-75
2021/07/13 08:45:51;;;;;;;7.45;3.60;;;;;;;;;;6247690;23;20004;-74
2021/07/13 08:48:18;;;;;;;5.38;3.28;;;;;;;;;;6220564;23;20036;-73
2021/07/13 08:50:44;;;;;;;7.97;2.95;;;;;;;;;;6247283;23;20016;-73
2021/07/13 08:53:14;;;;;;;7.75;3.40;;;;;;;;;;6247611;23;20000;-75
2021/07/13 08:55:40;;;;;;;6.28;3.33;;;;;;;;;;6247752;23;20008;-74
2021/07/13 08:58:07;;;;;;;13.23;3.42;;;;;;;;;;6220637;23;20007;-73
2021/07/13 09:00:34;;;;;;;8.60;2.72;;;;;;;;;;6220591;23;20027;-77
2021/07/13 09:03:18;;;;;;;9.27;2.67;;;;;;;;;;6247280;23;20055;-73
2021/07/13 09:05:45;;;;;;;8.57;2.88;;;;;;;;;;6247543;23;20004;-73
2021/07/13 09:08:12;;;;;;;14.00;3.03;;;;;;;;;;6247461;23;20000;-74
2021/07/13 09:10:38;;;;;;;7.78;2.85;;;;;;;;;;6220500;23;20376;-74
2021/07/13 09:13:05;;;;;;;6.57;2.95;;;;;;;;;;6220562;23;20379;-76
2021/07/13 09:15:31;;;;;;;3.47;2.40;;;;;;;;;;6247121;23;20430;-75
2021/07/13 09:17:58;;;;;;;4.07;2.60;;;;;;;;;;6247212;23;20419;-75
2021/07/13 09:20:27;;;;;;;7.70;2.80;;;;;;;;;;6247218;23;20004;-74
2021/07/13 09:22:56;;;;;;;7.88;2.80;;;;;;;;;;6220358;23;20058;-76
2021/07/13 09:25:26;;;;;;;3.88;2.92;;;;;;;;;;6220374;23;20008;-76
2021/07/13 09:28:08;;;;;;;5.15;2.67;;;;;;;;;;6247074;23;20007;-76
2021/07/13 09:30:35;;;;;;;14.52;2.70;;;;;;;;;;6220300;23;20012;-76
2021/07/13 09:33:21;;;;;;;3.53;2.42;;;;;;;;;;6220304;23;20000;-76
2021/07/13 09:35:58;;;;;;;4.93;2.53;;;;;;;;;;6244171;23;20024;-73
2021/07/13 09:38:24;;;;;;;3.70;2.42;;;;;;;;;;6245535;23;20000;-74
2021/07/13 09:40:59;;;;;;;3.22;2.15;;;;;;;;;;6245514;23;20011;-73
2021/07/13 09:43:25;;;;;;;5.70;2.67;;;;;;;;;;6245217;23;20070;-76
2021/07/13 09:45:51;;;;;;;10.82;2.90;;;;;;;;;;6245504;23;20004;-73
2021/07/13 09:48:17;;;;;;;12.82;2.78;;;;;;;;;;6245563;23;20020;-74
2021/07/13 09:50:44;;;;;;;7.53;2.63;;;;;;;;;;6245288;23;20050;-74
2021/07/13 09:53:13;;;;;;;6.82;2.70;;;;;;;;;;6244924;23;20314;-77
2021/07/13 09:55:39;;;;;;;13.20;2.90;;;;;;;;;;6244833;23;20012;-72
2021/07/13 09:58:11;;;;;;;4.80;2.55;;;;;;;;;;6245236;23;20011;-74
2021/07/13 10:00:39;;;;;;;3.38;2.53;;;;;;;;;;6245401;23;20004;-73
2021/07/13 10:03:05;;;;;;;5.90;2.53;;;;;;;;;;6244741;23;20008;-72
2021/07/13 10:05:31;;;;;;;3.95;2.58;;;;;;;;;;6245270;23;20027;-75
2021/07/13 10:07:58;;;;;;;5.10;2.80;;;;;;;;;;6244958;23;20054;-77
2021/07/13 10:10:25;;;;;;;3.90;2.50;;;;;;;;;;6246883;23;20487;-76
2021/07/13 10:12:53;;;;;;;8.05;2.70;;;;;;;;;;6246747;23;20075;-73
2021/07/13 10:15:20;;;;;;;5.82;2.38;;;;;;;;;;6245544;23;20006;-75
2021/07/13 10:17:47;;;;;;;4.25;2.60;;;;;;;;;;6219242;23;20014;-73
2021/07/13 10:20:13;;;;;;;3.72;2.20;;;;;;;;;;6244737;23;20083;-73
2021/07/13 10:22:42;;;;;;;7.88;2.55;;;;;;;;;;6245185;23;20008;-73
2021/07/13 10:25:08;;;;;;;5.75;2.60;;;;;;;;;;6244814;23;20023;-74
2021/07/13 10:27:37;;;;;;;6.18;2.30;;;;;;;;;;6245276;23;20114;-75
2021/07/13 10:30:07;;;;;;;4.88;2.40;;;;;;;;;;6245097;23;20023;-78
2021/07/13 10:32:35;;;;;;;8.10;3.03;;;;;;;;;;6245200;23;20004;-79
2021/07/13 10:35:05;;;;;;;5.43;2.25;;;;;;;;;;6244522;23;20020;-79
2021/07/13 10:37:31;;;;;;;8.20;2.13;;;;;;;;;;6246631;23;20067;-79
2021/07/13 10:40:03;;;;;;;5.20;2.47;;;;;;;;;;6245164;23;20027;-79
2021/07/13 10:42:41;;;;;;;10.65;2.88;;;;;;;;;;6245043;23;20004;-76
2021/07/13 10:45:13;;;;;;;3.67;2.55;;;;;;;;;;6244776;23;20027;-77
2021/07/13 10:47:56;;;;;;;6.67;2.37;;;;;;;;;;6244960;23;20378;-77
2021/07/13 10:50:22;;;;;;;7.05;2.72;;;;;;;;;;6247109;23;20012;-78
2021/07/13 10:52:52;;;;;;;6.45;2.67;;;;;;;;;;6247374;23;20000;-79
2021/07/13 10:55:31;;;;;;;12.73;2.63;;;;;;;;;;6245069;23;20433;-78
2021/07/13 10:58:15;;;;;;;4.32;2.53;;;;;;;;;;6244643;23;20000;-80
2021/07/13 11:00:47;;;;;;;7.57;2.40;;;;;;;;;;6244816;23;20008;-79
2021/07/13 11:03:32;;;;;;;5.10;1.83;;;;;;;;;;6245007;23;20008;-79
2021/07/13 11:06:02;;;;;;;7.45;2.28;;;;;;;;;;6244899;23;20011;-74
2021/07/13 11:08:41;;;;;;;6.60;2.33;;;;;;;;;;6246469;23;20058;-81
2021/07/13 11:11:22;;;;;;;3.95;2.47;;;;;;;;;;6244653;23;20023;-78
2021/07/13 11:14:05;;;;;;;4.05;2.72;;;;;;;;;;6219411;23;20451;-76
2021/07/13 11:16:36;;;;;;;3.38;2.17;;;;;;;;;;6244933;23;20008;-80
2021/07/13 11:19:11;;;;;;;6.28;2.40;;;;;;;;;;6246460;23;20035;-78
2021/07/13 11:21:40;;;;;;;4.55;2.40;;;;;;;;;;6244593;23;20008;-78
2021/07/13 11:24:07;;;;;;;4.18;2.25;;;;;;;;;;6244683;23;20036;-74
2021/07/13 11:26:34;;;;;;;6.18;2.30;;;;;;;;;;6246310;23;20000;-77
2021/07/13 11:29:03;;;;;;;4.22;2.05;;;;;;;;;;6245889;23;20417;-80
2021/07/13 11:31:29;;;;;;;4.10;2.33;;;;;;;;;;6246220;23;20010;-79
2021/07/13 11:34:06;;;;;;;3.55;2.15;;;;;;;;;;6246138;23;20020;-80
2021/07/13 11:36:33;;;;;;;3.40;2.20;;;;;;;;;;6219021;23;20429;-80
2021/07/13 11:39:01;;;;;;;3.70;2.35;;;;;;;;;;6246268;23;20055;-78
2021/07/13 11:41:28;;;;;;;3.72;2.30;;;;;;;;;;6219184;23;20042;-75
2021/07/13 11:43:54;;;;;;;6.30;2.50;;;;;;;;;;6246583;23;20008;-80
2021/07/13 11:46:22;;;;;;;6.30;2.28;;;;;;;;;;6246074;23;19996;-80
2021/07/13 11:48:55;;;;;;;3.88;2.25;;;;;;;;;;6219309;23;20130;-80
2021/07/13 11:51:29;;;;;;;3.45;2.22;;;;;;;;;;6219329;23;20429;-78
2021/07/13 11:54:03;;;;;;;3.88;2.28;;;;;;;;;;6219390;23;20333;-79
2021/07/13 11:56:29;;;;;;;3.67;2.20;;;;;;;;;;6245815;23;20004;-80
2021/07/13 11:58:56;;;;;;;4.05;2.47;;;;;;;;;;6219147;23;20008;-79
2021/07/13 12:01:23;;;;;;;5.38;2.30;;;;;;;;;;6219336;23;20429;-79
2021/07/13 12:03:50;;;;;;;5.90;2.22;;;;;;;;;;6219437;23;20039;-80
2021/07/13 12:06:18;;;;;;;5.97;2.28;;;;;;;;;;6246426;23;20130;-79
2021/07/13 12:08:44;;;;;;;7.07;2.28;;;;;;;;;;6219212;23;20001;-78
2021/07/13 12:11:11;;;;;;;8.07;2.25;;;;;;;;;;6245860;23;20004;-78
2021/07/13 12:13:37;;;;;;;3.95;2.28;;;;;;;;;;6246212;23;20076;-74
2021/07/13 12:16:16;;;;;;;7.30;2.65;;;;;;;;;;6246059;23;20079;-76
2021/07/13 12:18:42;;;;;;;4.68;2.30;;;;;;;;;;6246362;23;20005;-77
2021/07/13 12:21:12;;;;;;;6.85;2.40;;;;;;;;;;6245789;23;20031;-76
2021/07/13 12:23:38;;;;;;;4.30;2.05;;;;;;;;;;6246102;23;20001;-76
2021/07/13 12:26:25;;;;;;;4.80;2.25;;;;;;;;;;6246142;23;20007;-76
2021/07/13 12:29:01;;;;;;;4.45;2.17;;;;;;;;;;6245681;23;20007;-79
2021/07/13 12:31:27;;;;;;;4.95;2.60;;;;;;;;;;6219345;23;20380;-80
2021/07/13 12:33:54;;;;;;;3.80;2.25;;;;;;;;;;6245556;23;20043;-79
2021/07/13 12:36:38;;;;;;;3.38;2.15;;;;;;;;;;6245992;23;20070;-80
2021/07/13 12:39:23;;;;;;;5.38;2.05;;;;;;;;;;6219762;23;20008;-79
2021/07/13 12:41:57;;;;;;;3.05;1.95;;;;;;;;;;6220837;23;20036;-80
2021/07/13 12:44:26;;;;;;;4.57;2.67;;;;;;;;;;6220864;23;20325;-77
2021/07/13 12:46:53;;;;;;;10.07;2.40;;;;;;;;;;6247437;23;20135;-79
2021/07/13 12:49:19;;;;;;;10.23;2.60;;;;;;;;;;6220801;23;20004;-80
2021/07/13 12:51:45;;;;;;;3.50;2.25;;;;;;;;;;6220795;23;20349;-72
2021/07/13 12:54:11;;;;;;;2.97;2.20;;;;;;;;;;6247436;23;20329;-71
2021/07/13 12:56:38;;;;;;;4.45;2.58;;;;;;;;;;6247283;23;20004;-72
2021/07/13 12:59:05;;;;;;;6.10;2.40;;;;;;;;;;6247700;23;20004;-70
2021/07/13 13:01:32;;;;;;;5.30;2.78;;;;;;;;;;6220598;23;20066;-72
2021/07/13 13:04:14;;;;;;;5.90;2.50;;;;;;;;;;6247268;23;20004;-69
2021/07/13 13:06:42;;;;;;;6.15;2.50;;;;;;;;;;6220674;23;20008;-70
2021/07/13 13:09:10;;;;;;;7.18;2.47;;;;;;;;;;6220322;23;20012;-73
2021/07/13 13:11:37;;;;;;;4.03;2.30;;;;;;;;;;6220380;23;20004;-72
2021/07/13 13:14:08;;;;;;;5.72;2.53;;;;;;;;;;6247469;23;20079;-71
2021/07/13 13:16:38;;;;;;;3.90;2.70;;;;;;;;;;6220532;23;20004;-72
2021/07/13 13:19:05;;;;;;;3.55;2.42;;;;;;;;;;6247319;23;19996;-73
2021/07/13 13:21:32;;;;;;;4.07;2.38;;;;;;;;;;6247496;23;20338;-73
2021/07/13 13:23:59;;;;;;;4.93;2.40;;;;;;;;;;6247190;23;20030;-74
2021/07/13 13:26:25;;;;;;;8.27;2.78;;;;;;;;;;6220235;23;20084;-70
2021/07/13 13:28:52;;;;;;;7.70;2.58;;;;;;;;;;6246989;23;20030;-73
2021/07/13 13:31:19;;;;;;;6.95;2.80;;;;;;;;;;6220265;23;20091;-72
2021/07/13 13:33:51;;;;;;;6.05;2.72;;;;;;;;;;6246603;23;20008;-71
2021/07/13 13:36:27;;;;;;;5.78;2.42;;;;;;;;;;6219985;23;20008;-73
2021/07/13 13:39:14;;;;;;;3.70;2.38;;;;;;;;;;6220290;23;20000;-73
2021/07/13 13:41:41;;;;;;;7.32;2.70;;;;;;;;;;6219461;23;20008;-73
2021/07/13 13:44:07;;;;;;;4.57;2.58;;;;;;;;;;6219295;23;20004;-74
2021/07/13 13:46:33;;;;;;;4.57;2.35;;;;;;;;;;6219681;23;20054;-73
2021/07/13 13:48:59;;;;;;;4.38;2.45;;;;;;;;;;6220097;23;20325;-75
2021/07/13 13:51:25;;;;;;;3.83;2.13;;;;;;;;;;6219577;23;20503;-74
2021/07/13 13:53:51;;;;;;;5.43;2.28;;;;;;;;;;6219839;23;20027;-69
2021/07/13 13:56:24;;;;;;;3.75;2.42;;;;;;;;;;6246896;23;20015;-73
2021/07/13 13:58:50;;;;;;;4.70;2.08;;;;;;;;;;6220043;23;20371;-75
2021/07/13 14:01:18;;;;;;;4.88;2.28;;;;;;;;;;6247216;23;20004;-75
2021/07/13 14:03:45;;;;;;;6.43;2.50;;;;;;;;;;6220050;23;20086;-73
2021/07/13 14:06:12;;;;;;;3.22;2.22;;;;;;;;;;6246843;23;20008;-74
2021/07/13 14:08:39;;;;;;;3.72;2.40;;;;;;;;;;6246742;23;20004;-73
2021/07/13 14:11:06;;;;;;;8.20;2.40;;;;;;;;;;6246913;23;20012;-74
2021/07/13 14:13:33;;;;;;;3.40;2.03;;;;;;;;;;6219872;23;20000;-73
2021/07/13 14:16:00;;;;;;;5.28;1.70;;;;;;;;;;6246584;23;20325;-74
2021/07/13 14:18:27;;;;;;;3.80;1.75;;;;;;;;;;6219903;23;20004;-73
2021/07/13 14:20:55;;;;;;;3.55;1.60;;;;;;;;;;6246718;23;20364;-73
2021/07/13 14:23:21;;;;;;;2.42;1.60;;;;;;;;;;6246616;23;20000;-72
2021/07/13 14:25:48;;;;;;;3.45;1.67;;;;;;;;;;6219658;23;20008;-73
2021/07/13 14:28:14;;;;;;;4.57;1.90;;;;;;;;;;6246487;23;20000;-72
2021/07/13 14:30:41;;;;;;;2.35;1.50;;;;;;;;;;6246885;23;20016;-73
2021/07/13 14:33:07;;;;;;;4.88;1.60;;;;;;;;;;6246569;23;20024;-73
2021/07/13 14:35:34;;;;;;;2.60;1.52;;;;;;;;;;6246315;23;20040;-73
2021/07/13 14:38:00;;;;;;;6.35;1.98;;;;;;;;;;6246493;23;20058;-73